createdAt,value
2022-08-04T00:00:10.319Z,100407.25
2022-08-04T00:03:28.431Z,100415.69
2022-08-04T00:06:52.823Z,100412.88
2022-08-04T00:10:04.478Z,100405.41
2022-08-04T00:13:09.835Z,100407.00
2022-08-04T00:16:14.742Z,100407.00
2022-08-04T00:19:23.065Z,100403.03
2022-08-04T00:22:29.003Z,100411.13
2022-08-04T00:25:31.636Z,100404.72
2022-08-04T00:28:37.460Z,100408.03
2022-08-04T00:31:54.744Z,100404.09
2022-08-04T00:35:00.776Z,100417.03
2022-08-04T00:38:03.971Z,100415.06
2022-08-04T00:41:07.129Z,100420.31
2022-08-04T00:44:27.758Z,100414.69
2022-08-04T00:47:50.762Z,100425.94
2022-08-04T00:51:24.115Z,100404.88
2022-08-04T00:54:32.040Z,100431.69
2022-08-04T00:58:14.183Z,100432.09
2022-08-04T01:01:28.985Z,100433.34
2022-08-04T01:04:49.710Z,100430.13
2022-08-04T01:08:11.881Z,100438.19
2022-08-04T01:11:17.080Z,100434.22
2022-08-04T01:14:52.733Z,100437.44
2022-08-04T01:18:08.801Z,100434.31
2022-08-04T01:21:29.945Z,100409.53
2022-08-04T01:25:04.747Z,100438.31
2022-08-04T01:28:43.031Z,100429.53
2022-08-04T01:32:02.638Z,100424.72
2022-08-04T01:35:09.049Z,100426.38
2022-08-04T01:38:24.688Z,100436.81
2022-08-04T01:41:32.535Z,100423.19
2022-08-04T01:44:37.123Z,100373.75
2022-08-04T01:47:50.100Z,100428.81
2022-08-04T01:50:54.139Z,100432.03
2022-08-04T01:53:56.842Z,100428.81
2022-08-04T01:57:36.841Z,100419.59
2022-08-04T02:00:29.243Z,100423.19
2022-08-04T02:04:18.525Z,100425.62
2022-08-04T02:07:17.242Z,100426.84
2022-08-04T02:10:42.102Z,100408.06
2022-08-04T02:14:04.716Z,100422.44
2022-08-04T02:17:12.059Z,100420.81
2022-08-04T02:20:35.725Z,100416.06
2022-08-04T02:23:39.284Z,100418.44
2022-08-04T02:26:43.285Z,100409.66
2022-08-04T02:29:56.902Z,100415.25
2022-08-04T02:33:04.301Z,100411.28
2022-08-04T02:36:11.089Z,100420.53
2022-08-04T02:39:20.130Z,100415.34
2022-08-04T02:42:22.864Z,100416.13
2022-08-04T02:45:28.896Z,100422.59
2022-08-04T02:48:34.707Z,100425.03
2022-08-04T02:51:41.282Z,100418.59
2022-08-04T02:54:45.639Z,100417.81
2022-08-04T02:57:50.743Z,100413.00
2022-08-04T03:00:53.451Z,100413.78
2022-08-04T03:04:24.307Z,100411.41
2022-08-04T03:11:48.887Z,100378.78
2022-08-04T03:15:32.646Z,100421.44
2022-08-04T03:19:03.265Z,100414.25
2022-08-04T03:22:31.282Z,100421.06
2022-08-04T03:25:57.209Z,100417.13
2022-08-04T03:29:36.608Z,100413.94
2022-08-04T03:33:25.705Z,100419.56
2022-08-04T03:36:56.525Z,100429.22
2022-08-04T03:40:25.863Z,100434.06
2022-08-04T03:43:57.023Z,100424.03
2022-08-04T03:47:28.368Z,100432.47
2022-08-04T03:51:11.183Z,100434.06
2022-08-04T03:55:04.137Z,100429.25
2022-08-04T03:58:30.582Z,100424.84
2022-08-04T04:02:26.102Z,100430.06
2022-08-04T04:06:02.330Z,100430.00
2022-08-04T04:09:37.788Z,100436.44
2022-08-04T04:12:56.063Z,100442.41
2022-08-04T04:16:13.774Z,100434.75
2022-08-04T04:19:58.238Z,100437.53
2022-08-04T04:23:23.020Z,100441.09
2022-08-04T04:26:50.977Z,100430.66
2022-08-04T04:30:19.221Z,100438.13
2022-08-04T04:33:30.788Z,100402.53
2022-08-04T04:36:53.878Z,100438.00
2022-08-04T04:40:18.084Z,100432.00
2022-08-04T04:43:50.363Z,100453.44
2022-08-04T04:47:42.981Z,100452.12
2022-08-04T04:51:29.737Z,100450.00
2022-08-04T04:55:21.512Z,100456.34
2022-08-04T04:58:28.062Z,100453.41
2022-08-04T05:02:08.086Z,100448.16
2022-08-04T05:05:55.901Z,100450.53
2022-08-04T05:09:36.224Z,100460.97
2022-08-04T05:14:35.212Z,100462.16
2022-08-04T05:16:44.602Z,100465.69
2022-08-04T05:20:11.040Z,100475.78
2022-08-04T05:23:19.663Z,100472.13
2022-08-04T05:26:30.947Z,100458.50
2022-08-04T05:29:41.377Z,100476.41
2022-08-04T05:33:06.529Z,100468.78
2022-08-04T05:36:40.007Z,100485.59
2022-08-04T05:40:15.137Z,100481.56
2022-08-04T05:43:19.355Z,100452.09
2022-08-04T05:46:22.120Z,100491.94
2022-08-04T05:49:34.101Z,100486.25
2022-08-04T05:52:37.930Z,100480.50
2022-08-04T05:55:48.718Z,100485.22
2022-08-04T05:59:26.100Z,100483.97
2022-08-04T06:02:31.639Z,100491.94
2022-08-04T06:05:37.160Z,100490.22
2022-08-04T06:08:50.300Z,100492.44
2022-08-04T06:12:37.435Z,100492.00
2022-08-04T06:15:51.452Z,100494.63
2022-08-04T06:20:02.901Z,100500.47
2022-08-04T06:22:25.187Z,100488.34
2022-08-04T06:25:34.473Z,100492.22
2022-08-04T06:28:42.951Z,100477.63
2022-08-04T06:32:28.898Z,100490.81
2022-08-04T06:35:10.384Z,100480.28
2022-08-04T06:38:13.705Z,100476.59
2022-08-04T06:41:17.538Z,100496.19
2022-08-04T06:44:26.011Z,100484.00
2022-08-04T06:47:30.384Z,100489.56
2022-08-04T06:51:25.744Z,100488.69
2022-08-04T06:53:57.937Z,100464.19
2022-08-04T06:57:02.774Z,100481.50
2022-08-04T07:00:09.007Z,100471.03
2022-08-04T07:03:12.060Z,100484.09
2022-08-04T07:06:15.067Z,100485.50
2022-08-04T07:09:17.917Z,100497.28
2022-08-04T07:12:21.361Z,100493.12
2022-08-04T07:15:25.820Z,100478.41
2022-08-04T07:18:28.246Z,100483.44
2022-08-04T07:21:31.320Z,100491.41
2022-08-04T07:24:35.430Z,100493.56
2022-08-04T07:27:48.633Z,100492.78
2022-08-04T07:30:53.407Z,100409.31
2022-08-04T07:34:21.450Z,100476.72
2022-08-04T07:37:19.346Z,100469.22
2022-08-04T07:40:22.280Z,100482.59
2022-08-04T07:43:25.199Z,100485.44
2022-08-04T07:46:27.738Z,100467.19
2022-08-04T07:49:57.267Z,100471.75
2022-08-04T07:53:15.625Z,100480.03
2022-08-04T07:56:19.744Z,100474.09
2022-08-04T07:59:22.286Z,100474.47
2022-08-04T08:02:25.389Z,100477.03
2022-08-04T08:05:29.166Z,100464.00
2022-08-04T08:08:31.639Z,100476.19
2022-08-04T08:12:35.967Z,100468.41
2022-08-04T08:14:56.920Z,100458.53
2022-08-04T08:18:00.671Z,100455.09
2022-08-04T08:21:04.140Z,100474.22
2022-08-04T08:24:12.842Z,100485.28
2022-08-04T08:27:15.626Z,100469.44
2022-08-04T08:30:18.060Z,100470.66
2022-08-04T08:33:21.847Z,100469.47
2022-08-04T08:36:44.288Z,100456.88
2022-08-04T08:39:59.067Z,100480.50
2022-08-04T08:44:00.411Z,100446.00
2022-08-04T08:47:28.708Z,100465.81
2022-08-04T08:51:02.081Z,100467.47
2022-08-04T08:54:34.909Z,100484.47
2022-08-04T08:58:00.839Z,100485.75
2022-08-04T09:01:16.753Z,100482.31
2022-08-04T09:04:33.539Z,100455.91
2022-08-04T09:08:08.213Z,100474.69
2022-08-04T09:11:18.929Z,100481.53
2022-08-04T09:14:29.247Z,100461.97
2022-08-04T09:17:38.161Z,100480.03
2022-08-04T09:20:56.283Z,100481.09
2022-08-04T09:24:35.165Z,100459.59
2022-08-04T09:27:59.841Z,100468.25
2022-08-04T09:31:20.055Z,100465.81
2022-08-04T09:34:47.329Z,100461.19
2022-08-04T09:38:40.807Z,100468.31
2022-08-04T09:42:22.522Z,100463.16
2022-08-04T09:45:43.986Z,100450.97
2022-08-04T09:49:01.299Z,100455.78
2022-08-04T09:52:16.927Z,100455.53
2022-08-04T09:55:34.389Z,100430.69
2022-08-04T09:58:59.999Z,100443.75
2022-08-04T10:02:08.194Z,100446.44
2022-08-04T10:05:18.680Z,100446.56
2022-08-04T10:08:52.994Z,100440.34
2022-08-04T10:11:57.900Z,100430.41
2022-08-04T10:15:31.715Z,100435.31
2022-08-04T10:18:52.752Z,100441.06
2022-08-04T10:22:28.988Z,100429.66
2022-08-04T10:26:05.661Z,100435.94
2022-08-04T10:29:14.845Z,100430.13
2022-08-04T10:32:20.364Z,100432.72
2022-08-04T10:35:26.734Z,100428.53
2022-08-04T10:38:40.802Z,100408.91
2022-08-04T10:42:24.583Z,100414.97
2022-08-04T10:45:45.130Z,100411.62
2022-08-04T10:48:56.320Z,100408.03
2022-08-04T10:52:28.075Z,100393.44
2022-08-04T10:56:30.181Z,100409.72
2022-08-04T10:59:46.063Z,100398.91
2022-08-04T11:03:11.373Z,100393.78
2022-08-04T11:06:14.878Z,100376.84
2022-08-04T11:09:18.359Z,100382.34
2022-08-04T11:12:25.405Z,100372.94
2022-08-04T11:15:36.903Z,100369.81
2022-08-04T11:19:06.657Z,100389.72
2022-08-04T11:22:24.962Z,100380.41
2022-08-04T11:25:33.689Z,100375.75
2022-08-04T11:28:42.005Z,100367.09
2022-08-04T11:31:51.845Z,100383.03
2022-08-04T11:35:00.526Z,100367.41
2022-08-04T11:38:21.698Z,100364.78
2022-08-04T11:41:49.609Z,100375.44
2022-08-04T11:45:07.506Z,100349.25
2022-08-04T11:48:16.122Z,100348.91
2022-08-04T11:51:19.572Z,100355.16
2022-08-04T11:54:22.097Z,100354.97
2022-08-04T11:57:36.318Z,100347.50
2022-08-04T12:00:53.876Z,100342.22
2022-08-04T12:04:21.399Z,100291.28
2022-08-04T12:07:49.581Z,100323.88
2022-08-04T12:11:17.117Z,100339.94
2022-08-04T12:14:31.458Z,100323.94
2022-08-04T12:17:52.812Z,100331.22
2022-08-04T12:21:01.326Z,100326.06
2022-08-04T12:24:08.612Z,100319.41
2022-08-04T12:27:15.833Z,100304.56
2022-08-04T12:31:00.886Z,100302.38
2022-08-04T12:34:04.167Z,100312.13
2022-08-04T12:37:31.764Z,100308.53
2022-08-04T12:40:49.690Z,100307.09
2022-08-04T12:43:53.488Z,100301.72
2022-08-04T12:47:27.631Z,100303.28
2022-08-04T12:50:20.807Z,100299.97
2022-08-04T12:53:33.762Z,100315.31
2022-08-04T12:56:59.951Z,100303.75
2022-08-04T13:00:02.518Z,100291.50
2022-08-04T13:03:09.673Z,100300.63
2022-08-04T13:06:19.753Z,100279.84
2022-08-04T13:09:32.008Z,100302.38
2022-08-04T13:12:35.069Z,100281.22
2022-08-04T13:15:47.320Z,100278.94
2022-08-04T13:18:58.996Z,100264.81
2022-08-04T13:22:08.699Z,100268.78
2022-08-04T13:26:41.593Z,100268.28
2022-08-04T13:28:42.906Z,100268.78
2022-08-04T13:31:52.607Z,100268.53
2022-08-04T13:34:57.541Z,100252.81
2022-08-04T13:38:01.758Z,100253.34
2022-08-04T13:41:06.705Z,100251.16
2022-08-04T13:44:17.409Z,100255.03
2022-08-04T13:47:28.347Z,100244.88
2022-08-04T13:50:32.972Z,100255.66
2022-08-04T13:53:38.095Z,100242.47
2022-08-04T13:56:47.048Z,100249.50
2022-08-04T13:59:54.652Z,100236.00
2022-08-04T14:03:23.356Z,100223.78
2022-08-04T14:06:30.932Z,100218.56
2022-08-04T14:09:35.316Z,100222.34
2022-08-04T14:12:47.264Z,100211.72
2022-08-04T14:16:02.307Z,100222.03
2022-08-04T14:19:06.751Z,100208.53
2022-08-04T14:22:27.486Z,100221.16
2022-08-04T14:25:35.692Z,100205.12
2022-08-04T14:29:08.470Z,100203.16
2022-08-04T14:32:10.723Z,100209.13
2022-08-04T14:35:15.421Z,100212.19
2022-08-04T14:38:18.200Z,100209.91
2022-08-04T14:41:23.897Z,100195.53
2022-08-04T14:44:28.586Z,100193.47
2022-08-04T14:47:52.534Z,100200.91
2022-08-04T14:50:58.940Z,100163.28
2022-08-04T14:54:06.318Z,100197.03
2022-08-04T14:57:16.135Z,100190.75
2022-08-04T15:00:36.056Z,100196.87
2022-08-04T15:03:50.766Z,100192.03
2022-08-04T15:06:55.165Z,100189.97
2022-08-04T15:09:59.492Z,100195.88
2022-08-04T15:13:03.668Z,100194.81
2022-08-04T15:16:08.520Z,100195.63
2022-08-04T15:19:11.031Z,100183.16
2022-08-04T15:22:17.270Z,100194.78
2022-08-04T15:25:20.378Z,100185.50
2022-08-04T15:28:25.415Z,100172.91
2022-08-04T15:32:06.228Z,100188.06
2022-08-04T15:35:08.706Z,100185.91
2022-08-04T15:38:23.198Z,100182.44
2022-08-04T15:41:39.023Z,100160.28
2022-08-04T15:44:51.345Z,100169.34
2022-08-04T15:48:05.493Z,100181.34
2022-08-04T15:51:14.293Z,100172.19
2022-08-04T15:54:27.339Z,100169.72
2022-08-04T15:57:59.416Z,100171.66
2022-08-04T16:01:02.996Z,100171.06
2022-08-04T16:04:23.040Z,100168.88
2022-08-04T16:08:04.555Z,100149.09
2022-08-04T16:11:07.196Z,100164.22
2022-08-04T16:14:11.025Z,100159.19
2022-08-04T16:17:14.652Z,100141.75
2022-08-04T16:20:17.166Z,100153.25
2022-08-04T16:23:53.638Z,100137.22
2022-08-04T16:27:01.590Z,100153.66
2022-08-04T16:30:09.556Z,100147.03
2022-08-04T16:33:14.519Z,100149.25
2022-08-04T16:36:55.394Z,100152.75
2022-08-04T16:40:38.229Z,100148.03
2022-08-04T16:43:41.613Z,100152.50
2022-08-04T16:47:22.119Z,100146.22
2022-08-04T16:50:06.685Z,100124.31
2022-08-04T16:53:14.542Z,100147.88
2022-08-04T16:56:35.955Z,100146.44
2022-08-04T16:59:38.413Z,100128.00
2022-08-04T17:02:41.688Z,100139.41
2022-08-04T17:05:43.870Z,100128.50
2022-08-04T17:08:49.200Z,100143.84
2022-08-04T17:11:53.433Z,100150.19
2022-08-04T17:14:57.492Z,100148.00
2022-08-04T17:18:22.604Z,100144.72
2022-08-04T17:21:28.307Z,100154.88
2022-08-04T17:24:31.049Z,100151.41
2022-08-04T17:28:09.125Z,100151.56
2022-08-04T17:30:59.485Z,100138.34
2022-08-04T17:34:15.679Z,100141.34
2022-08-04T17:37:39.354Z,100138.34
2022-08-04T17:40:53.808Z,100143.72
2022-08-04T17:44:06.428Z,100136.47
2022-08-04T17:47:18.461Z,100151.63
2022-08-04T17:50:30.212Z,100164.91
2022-08-04T17:53:52.823Z,100139.50
2022-08-04T17:57:13.716Z,100140.94
2022-08-04T18:00:19.228Z,100155.31
2022-08-04T18:03:24.255Z,100138.41
2022-08-04T18:06:32.353Z,100146.78
2022-08-04T18:10:03.215Z,100153.91
2022-08-04T18:13:13.913Z,100149.31
2022-08-04T18:16:22.780Z,100149.63
2022-08-04T18:19:51.168Z,100125.59
2022-08-04T18:22:58.223Z,100156.72
2022-08-04T18:26:02.474Z,100153.72
2022-08-04T18:29:07.865Z,100163.66
2022-08-04T18:32:33.170Z,100149.75
2022-08-04T18:36:34.781Z,100156.38
2022-08-04T18:39:12.610Z,100151.94
2022-08-04T18:42:17.387Z,100168.03
2022-08-04T18:45:20.816Z,100156.94
2022-08-04T18:48:36.918Z,100154.72
2022-08-04T18:51:39.747Z,100153.75
2022-08-04T18:54:51.646Z,100177.44
2022-08-04T18:58:01.083Z,100165.38
2022-08-04T19:01:15.418Z,100170.88
2022-08-04T19:08:01.665Z,100173.53
2022-08-04T19:11:36.907Z,100170.91
2022-08-04T19:14:27.792Z,100188.63
2022-08-04T19:17:53.597Z,100170.22
2022-08-04T19:20:54.397Z,100194.34
2022-08-04T19:24:29.845Z,100191.34
2022-08-04T19:27:20.003Z,100192.41
2022-08-04T19:30:22.283Z,100195.06
2022-08-04T19:33:55.320Z,100186.44
2022-08-04T19:36:52.181Z,100183.88
2022-08-04T19:39:54.775Z,100203.25
2022-08-04T19:43:15.045Z,100188.44
2022-08-04T19:46:18.238Z,100204.22
2022-08-04T19:50:04.068Z,100193.50
2022-08-04T19:52:51.603Z,100210.06
2022-08-04T19:55:54.788Z,100210.31
2022-08-04T19:58:59.168Z,100204.88
2022-08-04T20:02:06.984Z,100201.19
2022-08-04T20:05:09.657Z,100211.84
2022-08-04T20:08:12.166Z,100207.22
2022-08-04T20:11:18.513Z,100206.09
2022-08-04T20:14:31.307Z,100215.72
2022-08-04T20:18:07.619Z,100214.25
2022-08-04T20:21:01.273Z,100216.06
2022-08-04T20:24:41.703Z,100220.28
2022-08-04T20:27:26.473Z,100222.88
2022-08-04T20:30:49.707Z,100219.84
2022-08-04T20:33:53.721Z,100224.00
2022-08-04T20:36:57.816Z,100209.78
2022-08-04T20:40:02.463Z,100215.06
2022-08-04T20:43:08.024Z,100212.31
2022-08-04T20:46:17.858Z,100219.81
2022-08-04T20:49:21.278Z,100210.53
2022-08-04T20:52:39.583Z,100226.13
2022-08-04T20:55:47.242Z,100216.37
2022-08-04T20:58:59.852Z,100228.25
2022-08-04T21:02:04.486Z,100220.00
2022-08-04T21:05:09.559Z,100233.25
2022-08-04T21:08:12.160Z,100237.31
2022-08-04T21:11:14.407Z,100234.59
2022-08-04T21:14:17.285Z,100233.13
2022-08-04T21:17:58.990Z,100241.59
2022-08-04T21:20:45.327Z,100223.50
2022-08-04T21:23:50.611Z,100237.25
2022-08-04T21:30:25.211Z,100234.31
2022-08-04T21:33:50.561Z,100250.50
2022-08-04T21:36:56.462Z,100252.59
2022-08-04T21:40:14.192Z,100251.03
2022-08-04T21:43:17.899Z,100255.16
2022-08-04T21:46:23.419Z,100239.31
2022-08-04T21:49:25.807Z,100264.53
2022-08-04T21:52:29.619Z,100264.75
2022-08-04T21:56:05.058Z,100264.75
2022-08-04T21:58:54.607Z,100262.47
2022-08-04T22:02:01.581Z,100272.41
2022-08-04T22:05:07.352Z,100253.81
2022-08-04T22:08:19.574Z,100267.78
2022-08-04T22:11:48.600Z,100265.84
2022-08-04T22:14:57.571Z,100267.28
2022-08-04T22:18:04.366Z,100252.47
2022-08-04T22:21:11.798Z,100276.19
2022-08-04T22:24:14.755Z,100266.41
2022-08-04T22:27:35.731Z,100267.81
2022-08-04T22:30:38.340Z,100271.56
2022-08-04T22:33:54.435Z,100291.00
2022-08-04T22:36:58.452Z,100284.53
2022-08-04T22:40:02.694Z,100290.25
2022-08-04T22:43:31.183Z,100283.53
2022-08-04T22:46:30.375Z,100264.53
2022-08-04T22:49:33.263Z,100276.81
2022-08-04T22:52:35.600Z,100271.69
2022-08-04T22:56:06.739Z,100269.81
2022-08-04T22:59:00.453Z,100276.81
2022-08-04T23:02:03.514Z,100269.31
2022-08-04T23:05:06.313Z,100272.50
2022-08-04T23:08:08.833Z,100236.00
2022-08-04T23:11:11.819Z,100276.53
2022-08-04T23:14:14.956Z,100258.25
2022-08-04T23:17:17.213Z,100272.91
2022-08-04T23:20:23.621Z,100269.00
2022-08-04T23:23:35.459Z,100270.69
2022-08-04T23:26:38.111Z,100262.31
2022-08-04T23:29:52.605Z,100260.87
2022-08-04T23:32:58.134Z,100259.97
2022-08-04T23:36:00.738Z,100244.94
2022-08-04T23:39:05.918Z,100269.34
2022-08-04T23:42:08.749Z,100267.37
2022-08-04T23:46:05.151Z,100254.34
2022-08-04T23:48:40.750Z,100253.16
2022-08-04T23:51:43.400Z,100263.44
2022-08-04T23:54:45.630Z,100261.84
2022-08-04T23:58:05.833Z,100267.13
